createdAt,value
2023-01-29T00:00:00.598Z,32.0
2023-01-29T00:10:01.655Z,36.0
2023-01-29T00:20:00.710Z,27.2
2023-01-29T00:30:00.654Z,33.2
2023-01-29T00:40:00.783Z,28.8
2023-01-29T00:50:00.667Z,29.7
2023-01-29T01:00:00.688Z,32.8
2023-01-29T01:10:00.659Z,35.3
2023-01-29T01:20:00.621Z,31.7
2023-01-29T01:30:00.550Z,34.0
2023-01-29T01:40:00.555Z,37.9
2023-01-29T01:50:00.562Z,38.9
2023-01-29T02:00:00.555Z,50.4
2023-01-29T02:10:00.546Z,40.0
2023-01-29T02:20:00.571Z,40.4
2023-01-29T02:30:00.688Z,38.7
2023-01-29T02:40:01.335Z,34.4
2023-01-29T02:50:00.665Z,51.2
2023-01-29T03:00:00.705Z,36.2
2023-01-29T03:10:00.635Z,37.4
2023-01-29T03:20:00.700Z,35.7
2023-01-29T03:30:00.593Z,39.3
2023-01-29T03:40:00.531Z,31.1
2023-01-29T03:50:00.572Z,27.5
2023-01-29T04:00:00.547Z,25.9
2023-01-29T04:10:00.532Z,25.7
2023-01-29T04:20:00.547Z,26.2
2023-01-29T04:30:00.568Z,27.2
2023-01-29T04:40:00.867Z,24.7
2023-01-29T04:50:00.767Z,23.9
2023-01-29T05:00:00.705Z,26.2
2023-01-29T05:10:00.874Z,28.5
2023-01-29T05:20:00.687Z,28.2
2023-01-29T05:30:00.555Z,28.7
2023-01-29T05:40:00.642Z,29.2
2023-01-29T05:50:00.645Z,30.0
2023-01-29T06:00:00.682Z,26.5
2023-01-29T06:10:00.569Z,26.8
2023-01-29T06:20:02.579Z,25.9
2023-01-29T06:30:00.495Z,25.2
2023-01-29T06:50:00.456Z,24.4
2023-01-29T07:00:04.861Z,22.9
2023-01-29T07:20:00.628Z,22.1
2023-01-29T07:30:00.587Z,22.5
2023-01-29T07:40:00.565Z,20.6
2023-01-29T07:50:00.988Z,21.1
2023-01-29T08:00:00.581Z,21.0
2023-01-29T08:10:00.713Z,21.0
2023-01-29T08:20:00.804Z,19.1
2023-01-29T08:30:00.802Z,20.4
2023-01-29T08:40:00.739Z,18.9
2023-01-29T08:50:00.720Z,19.5
2023-01-29T09:00:00.853Z,18.6
2023-01-29T09:10:00.756Z,19.0
2023-01-29T09:20:00.716Z,17.1
2023-01-29T09:30:00.673Z,16.0
2023-01-29T09:40:00.596Z,17.6
2023-01-29T09:50:00.568Z,15.8
2023-01-29T10:00:00.570Z,17.3
2023-01-29T10:10:00.561Z,15.8
2023-01-29T10:20:00.694Z,14.8
2023-01-29T10:30:00.803Z,13.8
2023-01-29T10:40:00.271Z,12.9
2023-01-29T10:50:00.275Z,14.2
2023-01-29T11:00:00.276Z,13.5
2023-01-29T11:10:00.302Z,12.0
2023-01-29T11:20:00.289Z,12.8
2023-01-29T11:30:00.257Z,13.0
2023-01-29T11:40:00.530Z,13.2
2023-01-29T11:50:00.559Z,12.8
2023-01-29T12:00:00.748Z,15.2
2023-01-29T12:10:00.254Z,12.7
2023-01-29T12:20:00.263Z,12.3
2023-01-29T12:30:00.272Z,11.6
2023-01-29T12:40:00.294Z,13.3
2023-01-29T12:50:00.234Z,13.3
2023-01-29T13:00:00.263Z,14.1
2023-01-29T13:10:00.269Z,13.4
2023-01-29T13:20:00.282Z,13.9
2023-01-29T13:30:00.232Z,13.1
2023-01-29T13:40:00.276Z,13.8
2023-01-29T13:50:00.272Z,14.6
2023-01-29T14:00:00.365Z,15.1
2023-01-29T14:10:00.461Z,14.5
2023-01-29T14:20:00.625Z,14.9
2023-01-29T14:30:00.423Z,16.9
2023-01-29T14:40:00.265Z,18.3
2023-01-29T14:50:00.261Z,21.6
2023-01-29T15:00:00.343Z,19.7
2023-01-29T15:10:18.851Z,20.7
2023-01-29T15:20:00.371Z,20.9
2023-01-29T15:30:00.288Z,26.0
2023-01-29T15:40:00.298Z,23.4
2023-01-29T15:50:00.283Z,26.0
2023-01-29T16:00:00.400Z,26.0
2023-01-29T16:10:00.511Z,25.0
2023-01-29T16:20:01.360Z,26.1
2023-01-29T16:30:00.458Z,42.1
2023-01-29T16:40:00.431Z,25.8
2023-01-29T16:50:00.268Z,27.0
2023-01-29T17:00:00.290Z,27.6
2023-01-29T17:10:00.355Z,30.0
2023-01-29T17:20:00.278Z,29.9
2023-01-29T17:30:00.293Z,29.3
2023-01-29T17:40:00.240Z,31.4
2023-01-29T17:50:00.266Z,33.3
2023-01-29T18:00:00.479Z,32.7
2023-01-29T18:10:00.637Z,29.7
2023-01-29T18:20:00.474Z,29.2
2023-01-29T18:30:00.280Z,28.4
2023-01-29T18:40:00.288Z,40.5
2023-01-29T18:50:00.271Z,29.6
2023-01-29T19:00:00.280Z,32.0
2023-01-29T19:10:00.334Z,39.3
2023-01-29T19:20:00.301Z,37.0
2023-01-29T19:30:00.276Z,29.2
2023-01-29T19:40:00.266Z,33.2
2023-01-29T19:50:00.276Z,31.1
2023-01-29T20:00:00.298Z,33.3
2023-01-29T20:10:00.436Z,29.2
2023-01-29T20:20:00.389Z,32.9
2023-01-29T20:30:00.764Z,32.7
2023-01-29T20:40:00.295Z,37.0
2023-01-29T20:50:00.283Z,36.6
2023-01-29T21:00:00.278Z,37.0
2023-01-29T21:10:00.312Z,33.7
2023-01-29T21:20:00.704Z,34.8
2023-01-29T21:30:00.358Z,32.7
2023-01-29T21:40:00.268Z,45.3
2023-01-29T21:50:00.295Z,98.7
2023-01-29T22:00:00.280Z,42.0
2023-01-29T22:10:00.291Z,50.5
2023-01-29T22:20:00.318Z,47.7
2023-01-29T22:30:00.355Z,48.0
2023-01-29T22:40:00.335Z,37.8
2023-01-29T22:50:00.270Z,42.4
2023-01-29T23:00:00.288Z,35.9
2023-01-29T23:10:00.261Z,35.9
2023-01-29T23:20:00.271Z,38.4
2023-01-29T23:30:00.270Z,51.4
2023-01-29T23:40:00.291Z,39.3
2023-01-29T23:50:00.304Z,40.2
